createdAt,value
2022-10-15T00:01:20.267Z,14.40
2022-10-15T00:03:21.934Z,14.30
2022-10-15T00:05:23.551Z,14.40
2022-10-15T00:07:25.498Z,14.40
2022-10-15T00:09:27.253Z,14.40
2022-10-15T00:11:29.325Z,14.40
2022-10-15T00:13:30.977Z,14.40
2022-10-15T00:15:32.655Z,14.40
2022-10-15T00:17:34.349Z,14.40
2022-10-15T00:19:35.902Z,14.40
2022-10-15T00:21:37.718Z,14.40
2022-10-15T00:23:39.464Z,14.40
2022-10-15T00:25:42.427Z,14.40
2022-10-15T00:27:44.075Z,14.40
2022-10-15T00:29:45.620Z,14.40
2022-10-15T00:31:47.206Z,14.40
2022-10-15T00:33:49.510Z,14.50
2022-10-15T00:35:58.123Z,14.50
2022-10-15T00:37:59.806Z,14.40
2022-10-15T00:42:09.364Z,14.40
2022-10-15T00:44:29.441Z,14.50
2022-10-15T00:46:41.531Z,14.50
2022-10-15T00:48:43.720Z,14.50
2022-10-15T00:50:45.349Z,14.50
2022-10-15T00:53:07.186Z,14.50
2022-10-15T00:55:17.478Z,14.50
2022-10-15T00:57:19.423Z,14.50
2022-10-15T00:59:22.767Z,14.50
2022-10-15T01:01:25.774Z,14.50
2022-10-15T01:03:27.926Z,14.50
2022-10-15T01:05:30.345Z,14.50
2022-10-15T01:07:32.156Z,14.50
2022-10-15T01:09:34.359Z,14.50
2022-10-15T01:11:39.118Z,14.50
2022-10-15T01:14:07.328Z,14.50
2022-10-15T01:16:17.051Z,14.50
2022-10-15T01:18:25.213Z,14.50
2022-10-15T01:20:48.902Z,14.60
2022-10-15T01:23:09.340Z,14.60
2022-10-15T01:25:31.933Z,14.60
2022-10-15T01:27:44.752Z,14.60
2022-10-15T01:29:55.092Z,14.60
2022-10-15T01:32:08.499Z,14.60
2022-10-15T01:36:29.013Z,14.60
2022-10-15T01:38:35.763Z,14.60
2022-10-15T01:40:43.820Z,14.60
2022-10-15T01:42:54.239Z,14.60
2022-10-15T01:44:59.446Z,14.60
2022-10-15T01:47:02.106Z,14.60
2022-10-15T01:49:05.336Z,14.60
2022-10-15T01:51:07.754Z,14.70
2022-10-15T01:53:10.268Z,14.70
2022-10-15T01:55:14.952Z,14.70
2022-10-15T01:57:18.369Z,14.70
2022-10-15T01:59:21.901Z,14.70
2022-10-15T02:01:23.618Z,14.70
2022-10-15T02:03:25.406Z,14.70
2022-10-15T02:05:30.058Z,14.70
2022-10-15T02:07:31.827Z,14.70
2022-10-15T02:09:53.699Z,14.70
2022-10-15T02:12:09.621Z,14.70
2022-10-15T02:14:15.371Z,14.70
2022-10-15T02:16:25.004Z,14.70
2022-10-15T02:18:45.497Z,14.70
2022-10-15T02:21:19.885Z,14.70
2022-10-15T02:23:24.303Z,14.70
2022-10-15T02:25:27.186Z,14.70
2022-10-15T02:27:30.984Z,14.80
2022-10-15T02:29:33.715Z,14.80
2022-10-15T02:31:36.781Z,14.80
2022-10-15T02:33:39.023Z,14.80
2022-10-15T02:35:43.348Z,14.80
2022-10-15T02:37:47.500Z,14.80
2022-10-15T02:39:49.377Z,14.80
2022-10-15T02:41:52.581Z,14.80
2022-10-15T02:43:54.345Z,14.80
2022-10-15T02:45:55.994Z,14.80
2022-10-15T02:47:57.928Z,14.80
2022-10-15T02:49:59.730Z,14.80
2022-10-15T02:52:01.483Z,14.80
2022-10-15T02:54:04.241Z,14.80
2022-10-15T02:56:06.037Z,14.80
2022-10-15T02:58:07.816Z,14.80
2022-10-15T03:00:11.396Z,14.80
2022-10-15T03:02:15.479Z,14.80
2022-10-15T03:04:20.311Z,14.80
2022-10-15T03:06:22.066Z,14.80
2022-10-15T03:08:23.779Z,14.80
2022-10-15T03:10:25.519Z,14.80
2022-10-15T03:12:29.223Z,14.90
2022-10-15T03:14:31.009Z,14.80
2022-10-15T03:16:33.658Z,14.90
2022-10-15T03:18:38.214Z,15.00
2022-10-15T03:20:42.268Z,15.00
2022-10-15T03:22:43.994Z,15.10
2022-10-15T03:24:47.832Z,15.00
2022-10-15T03:26:49.571Z,15.00
2022-10-15T03:28:51.542Z,15.00
2022-10-15T03:30:53.226Z,15.00
2022-10-15T03:32:55.903Z,15.00
2022-10-15T03:34:57.658Z,15.00
2022-10-15T03:36:59.361Z,15.10
2022-10-15T03:39:01.144Z,15.20
2022-10-15T03:41:21.829Z,15.20
2022-10-15T03:43:41.971Z,15.10
2022-10-15T03:45:44.656Z,15.10
2022-10-15T03:48:03.563Z,15.10
2022-10-15T03:50:05.430Z,15.10
2022-10-15T03:52:13.581Z,15.10
2022-10-15T03:54:22.571Z,15.10
2022-10-15T03:56:24.195Z,15.10
2022-10-15T03:58:25.985Z,15.20
2022-10-15T04:00:27.780Z,15.20
2022-10-15T04:02:30.848Z,15.20
2022-10-15T04:04:32.485Z,15.10
2022-10-15T04:06:34.563Z,15.10
2022-10-15T04:08:36.695Z,15.20
2022-10-15T04:10:38.422Z,15.20
2022-10-15T04:12:40.113Z,15.30
2022-10-15T04:14:41.843Z,15.30
2022-10-15T04:16:43.510Z,15.30
2022-10-15T04:18:45.253Z,15.20
2022-10-15T04:20:46.942Z,15.20
2022-10-15T04:23:07.544Z,15.20
2022-10-15T04:25:15.263Z,15.20
2022-10-15T04:27:28.389Z,15.10
2022-10-15T04:29:30.093Z,15.10
2022-10-15T04:31:31.795Z,15.10
2022-10-15T04:33:33.603Z,15.10
2022-10-15T04:36:07.967Z,15.10
2022-10-15T04:38:19.126Z,15.10
2022-10-15T04:40:20.896Z,15.20
2022-10-15T04:42:22.631Z,15.20
2022-10-15T04:44:24.285Z,15.20
2022-10-15T04:46:26.047Z,15.10
2022-10-15T04:48:28.579Z,15.10
2022-10-15T04:50:30.315Z,15.10
2022-10-15T04:52:33.915Z,15.10
2022-10-15T04:54:36.707Z,15.10
2022-10-15T04:56:38.376Z,15.10
2022-10-15T04:58:40.081Z,15.10
2022-10-15T05:00:41.839Z,15.10
2022-10-15T05:02:43.543Z,15.10
2022-10-15T05:04:45.225Z,15.10
2022-10-15T05:06:46.976Z,15.10
2022-10-15T05:08:49.201Z,15.10
2022-10-15T05:10:51.141Z,15.10
2022-10-15T05:12:55.870Z,15.00
2022-10-15T05:14:58.690Z,15.10
2022-10-15T05:17:00.481Z,15.10
2022-10-15T05:19:03.491Z,15.10
2022-10-15T05:21:05.744Z,15.00
2022-10-15T05:23:07.557Z,15.10
2022-10-15T05:25:10.276Z,15.00
2022-10-15T05:27:11.913Z,15.00
2022-10-15T05:29:13.545Z,15.00
2022-10-15T05:31:19.088Z,15.00
2022-10-15T05:33:21.481Z,15.00
2022-10-15T05:35:24.163Z,15.00
2022-10-15T05:37:26.168Z,15.00
2022-10-15T05:39:27.923Z,15.00
2022-10-15T05:41:30.798Z,15.00
2022-10-15T05:43:35.008Z,15.00
2022-10-15T05:45:39.111Z,15.00
2022-10-15T05:47:41.833Z,15.00
2022-10-15T05:49:43.546Z,15.00
2022-10-15T05:51:45.302Z,15.00
2022-10-15T05:53:47.227Z,15.00
2022-10-15T05:55:48.903Z,15.00
2022-10-15T05:57:50.736Z,15.00
2022-10-15T05:59:59.715Z,14.90
2022-10-15T06:02:01.650Z,14.90
2022-10-15T06:04:03.489Z,14.90
2022-10-15T06:06:18.554Z,14.90
2022-10-15T06:08:20.593Z,14.90
2022-10-15T06:10:22.250Z,14.90
2022-10-15T06:12:25.954Z,14.90
2022-10-15T06:14:27.563Z,14.90
2022-10-15T06:16:29.257Z,14.90
2022-10-15T06:18:30.896Z,14.90
2022-10-15T06:20:32.802Z,14.90
2022-10-15T06:22:34.649Z,14.90
2022-10-15T06:24:36.486Z,15.00
2022-10-15T06:26:39.354Z,14.90
2022-10-15T06:28:41.258Z,15.00
2022-10-15T06:30:43.542Z,15.00
2022-10-15T06:32:51.410Z,15.00
2022-10-15T06:34:53.545Z,15.00
2022-10-15T06:36:55.196Z,15.00
2022-10-15T06:38:56.852Z,15.00
2022-10-15T06:40:58.712Z,15.00
2022-10-15T06:43:10.560Z,15.10
2022-10-15T06:45:12.338Z,15.10
2022-10-15T06:47:16.115Z,15.00
2022-10-15T06:49:17.833Z,15.10
2022-10-15T06:51:19.592Z,15.10
2022-10-15T06:53:23.103Z,15.10
2022-10-15T06:55:24.794Z,15.10
2022-10-15T06:57:29.326Z,15.10
2022-10-15T06:59:31.041Z,15.10
2022-10-15T07:01:32.755Z,15.10
2022-10-15T07:03:34.516Z,15.10
2022-10-15T07:05:44.177Z,15.10
2022-10-15T07:07:52.640Z,15.10
2022-10-15T07:09:55.222Z,15.10
2022-10-15T07:11:56.871Z,15.10
2022-10-15T07:13:58.425Z,15.20
2022-10-15T07:16:03.544Z,15.20
2022-10-15T07:18:05.233Z,15.20
2022-10-15T07:20:07.274Z,15.20
2022-10-15T07:22:08.834Z,15.20
2022-10-15T07:24:11.898Z,15.20
2022-10-15T07:26:13.550Z,15.20
2022-10-15T07:28:15.246Z,15.20
2022-10-15T07:30:16.876Z,15.20
2022-10-15T07:32:18.532Z,15.30
2022-10-15T07:34:20.247Z,15.30
2022-10-15T07:36:21.805Z,15.30
2022-10-15T07:38:23.486Z,15.40
2022-10-15T07:40:25.253Z,15.40
2022-10-15T07:42:27.140Z,15.50
2022-10-15T07:44:28.817Z,15.60
2022-10-15T07:46:30.480Z,15.60
2022-10-15T07:48:32.101Z,15.70
2022-10-15T07:50:35.537Z,15.70
2022-10-15T07:52:38.872Z,15.90
2022-10-15T07:54:40.508Z,15.90
2022-10-15T07:56:43.219Z,15.90
2022-10-15T07:58:51.568Z,16.00
2022-10-15T08:00:53.157Z,16.00
2022-10-15T08:02:54.980Z,16.00
2022-10-15T08:04:56.552Z,16.10
2022-10-15T08:06:58.372Z,16.00
2022-10-15T08:09:00.212Z,16.10
2022-10-15T08:11:05.994Z,16.00
2022-10-15T08:13:07.951Z,16.10
2022-10-15T08:15:09.783Z,16.10
2022-10-15T08:17:13.434Z,16.10
2022-10-15T08:19:17.519Z,16.10
2022-10-15T08:21:19.342Z,16.10
2022-10-15T08:23:20.974Z,16.10
2022-10-15T08:25:22.742Z,16.10
2022-10-15T08:27:24.327Z,16.10
2022-10-15T08:29:25.927Z,16.20
2022-10-15T08:31:27.841Z,16.20
2022-10-15T08:33:29.590Z,16.20
2022-10-15T08:35:35.293Z,16.30
2022-10-15T08:37:39.335Z,16.30
2022-10-15T08:39:41.034Z,16.30
2022-10-15T08:41:44.398Z,16.30
2022-10-15T08:43:46.603Z,16.30
2022-10-15T08:45:49.953Z,16.30
2022-10-15T08:47:55.916Z,16.40
2022-10-15T08:49:59.541Z,16.40
2022-10-15T08:52:06.320Z,16.50
2022-10-15T08:54:23.313Z,16.50
2022-10-15T08:56:30.333Z,16.50
2022-10-15T08:58:41.092Z,16.50
2022-10-15T09:01:02.016Z,16.60
2022-10-15T09:03:03.667Z,16.70
2022-10-15T09:05:31.969Z,16.70
2022-10-15T09:07:36.583Z,16.80
2022-10-15T09:09:38.350Z,16.70
2022-10-15T09:11:43.198Z,16.70
2022-10-15T09:13:47.815Z,16.70
2022-10-15T09:15:57.990Z,16.80
2022-10-15T09:17:59.679Z,16.80
2022-10-15T09:20:04.077Z,16.80
2022-10-15T09:22:06.857Z,16.80
2022-10-15T09:24:12.119Z,16.70
2022-10-15T09:26:26.983Z,16.80
2022-10-15T09:28:31.832Z,16.80
2022-10-15T09:30:46.335Z,16.90
2022-10-15T09:33:00.039Z,17.00
2022-10-15T09:35:21.498Z,17.10
2022-10-15T09:37:29.311Z,17.20
2022-10-15T09:39:35.924Z,17.40
2022-10-15T09:41:38.562Z,17.40
2022-10-15T09:43:41.515Z,17.60
2022-10-15T09:45:43.097Z,17.60
2022-10-15T09:47:44.990Z,17.70
2022-10-15T09:49:46.568Z,17.80
2022-10-15T09:54:10.478Z,18.00
2022-10-15T09:56:17.694Z,18.20
2022-10-15T09:58:24.801Z,18.40
2022-10-15T10:00:46.322Z,18.60
2022-10-15T10:03:08.175Z,18.60
2022-10-15T10:05:20.603Z,18.50
2022-10-15T10:07:33.485Z,18.60
2022-10-15T10:09:38.766Z,18.70
2022-10-15T10:11:48.752Z,18.80
2022-10-15T10:13:57.704Z,18.60
2022-10-15T10:16:04.724Z,18.60
2022-10-15T10:18:06.707Z,18.70
2022-10-15T10:20:11.456Z,18.90
2022-10-15T10:22:18.150Z,19.00
2022-10-15T10:24:30.124Z,19.30
2022-10-15T10:26:34.789Z,19.30
2022-10-15T10:28:39.361Z,19.50
2022-10-15T10:30:54.398Z,19.50
2022-10-15T10:33:00.027Z,19.60
2022-10-15T10:35:04.109Z,19.60
2022-10-15T10:37:07.612Z,19.50
2022-10-15T10:39:14.162Z,19.30
2022-10-15T10:41:15.830Z,19.20
2022-10-15T10:43:17.448Z,19.20
2022-10-15T10:45:23.556Z,19.30
2022-10-15T10:47:26.876Z,19.30
2022-10-15T10:49:32.980Z,19.20
2022-10-15T10:51:48.110Z,19.10
2022-10-15T10:53:57.030Z,19.10
2022-10-15T10:56:01.768Z,19.00
2022-10-15T10:58:04.272Z,18.80
2022-10-15T11:00:06.226Z,18.90
2022-10-15T11:02:11.765Z,18.80
2022-10-15T11:04:17.173Z,19.00
2022-10-15T11:06:30.034Z,19.10
2022-10-15T11:08:32.689Z,19.10
2022-10-15T11:10:43.204Z,19.10
2022-10-15T11:12:47.955Z,19.00
2022-10-15T11:15:02.876Z,19.00
2022-10-15T11:17:19.861Z,19.00
2022-10-15T11:19:54.667Z,19.30
2022-10-15T11:21:48.854Z,19.50
2022-10-15T11:24:10.017Z,20.10
2022-10-15T11:26:11.752Z,20.40
2022-10-15T11:28:46.043Z,20.30
2022-10-15T11:31:08.775Z,20.50
2022-10-15T11:33:11.759Z,20.60
2022-10-15T11:35:20.122Z,20.70
2022-10-15T11:37:42.563Z,20.90
2022-10-15T11:39:53.549Z,21.40
2022-10-15T11:42:07.371Z,21.80
2022-10-15T11:44:23.536Z,21.20
2022-10-15T11:46:29.809Z,21.30
2022-10-15T11:48:34.149Z,21.10
2022-10-15T11:50:47.908Z,21.30
2022-10-15T11:52:50.623Z,20.90
2022-10-15T11:54:55.212Z,20.40
2022-10-15T11:56:59.758Z,20.30
2022-10-15T11:59:05.067Z,20.40
2022-10-15T12:01:15.320Z,20.60
2022-10-15T12:03:19.379Z,20.60
2022-10-15T12:05:33.696Z,20.20
2022-10-15T12:07:35.576Z,20.00
2022-10-15T12:09:42.971Z,20.00
2022-10-15T12:11:44.580Z,20.00
2022-10-15T12:13:53.403Z,20.70
2022-10-15T12:16:08.602Z,20.80
2022-10-15T12:18:21.641Z,22.30
2022-10-15T12:20:23.798Z,22.20
2022-10-15T12:22:38.729Z,23.50
2022-10-15T12:24:45.034Z,21.70
2022-10-15T12:26:47.724Z,20.50
2022-10-15T12:28:51.875Z,20.00
2022-10-15T12:31:01.054Z,19.80
2022-10-15T12:33:04.047Z,19.80
2022-10-15T12:35:07.047Z,19.90
2022-10-15T12:37:19.053Z,19.80
2022-10-15T12:39:47.779Z,19.70
2022-10-15T12:41:47.960Z,19.60
2022-10-15T12:44:03.646Z,19.60
2022-10-15T12:46:06.411Z,19.40
2022-10-15T12:48:09.249Z,19.30
2022-10-15T12:50:17.228Z,19.30
2022-10-15T12:52:42.326Z,19.30
2022-10-15T12:54:44.759Z,19.20
2022-10-15T12:56:46.399Z,19.00
2022-10-15T12:58:49.356Z,19.00
2022-10-15T13:00:51.005Z,18.90
2022-10-15T13:02:54.014Z,18.90
2022-10-15T13:04:55.679Z,18.90
2022-10-15T13:07:02.888Z,18.80
2022-10-15T13:09:10.588Z,18.80
2022-10-15T13:11:31.544Z,18.90
2022-10-15T13:13:33.810Z,18.80
2022-10-15T13:15:35.376Z,18.60
2022-10-15T13:17:38.469Z,18.50
2022-10-15T13:19:45.697Z,18.40
2022-10-15T13:21:51.637Z,18.50
2022-10-15T13:23:53.329Z,18.50
2022-10-15T13:26:13.346Z,18.50
2022-10-15T13:28:31.762Z,18.40
2022-10-15T13:30:33.408Z,18.50
2022-10-15T13:33:04.584Z,18.50
2022-10-15T13:35:13.895Z,18.50
2022-10-15T13:37:18.127Z,18.50
2022-10-15T13:39:35.797Z,18.50
2022-10-15T13:41:40.288Z,18.50
2022-10-15T13:43:50.549Z,18.40
2022-10-15T13:45:59.570Z,18.40
2022-10-15T13:48:01.227Z,18.20
2022-10-15T13:50:11.827Z,18.20
2022-10-15T13:52:13.733Z,18.30
2022-10-15T13:54:17.313Z,18.20
2022-10-15T13:56:21.799Z,18.20
2022-10-15T13:58:27.683Z,18.20
2022-10-15T14:00:32.142Z,18.20
2022-10-15T14:02:33.776Z,18.10
2022-10-15T14:04:35.458Z,18.00
2022-10-15T14:06:40.334Z,18.00
2022-10-15T14:08:41.990Z,17.90
2022-10-15T14:10:43.635Z,17.90
2022-10-15T14:12:47.824Z,17.90
2022-10-15T14:14:49.508Z,17.90
2022-10-15T14:16:51.218Z,17.80
2022-10-15T14:18:54.922Z,17.80
2022-10-15T14:20:56.569Z,17.70
2022-10-15T14:22:58.289Z,17.80
2022-10-15T14:24:59.929Z,17.90
2022-10-15T14:27:06.585Z,17.90
2022-10-15T14:29:16.545Z,17.90
2022-10-15T14:31:54.959Z,17.90
2022-10-15T14:33:56.564Z,17.90
2022-10-15T14:36:16.479Z,17.80
2022-10-15T14:38:18.037Z,17.80
2022-10-15T14:40:20.370Z,17.90
2022-10-15T14:42:30.708Z,17.90
2022-10-15T14:44:46.826Z,18.00
2022-10-15T14:46:50.434Z,17.90
2022-10-15T14:48:52.016Z,17.90
2022-10-15T14:50:57.695Z,17.90
2022-10-15T14:53:00.497Z,17.90
2022-10-15T14:55:04.017Z,17.80
2022-10-15T14:57:12.577Z,17.80
2022-10-15T14:59:15.895Z,17.90
2022-10-15T15:01:18.716Z,18.00
2022-10-15T15:03:21.867Z,18.00
2022-10-15T15:05:24.800Z,18.00
2022-10-15T15:07:26.373Z,17.90
2022-10-15T15:09:28.127Z,18.00
2022-10-15T15:11:29.773Z,18.00
2022-10-15T15:13:32.812Z,18.10
2022-10-15T15:15:34.376Z,18.10
2022-10-15T15:17:35.987Z,17.90
2022-10-15T15:19:43.016Z,17.90
2022-10-15T15:21:45.402Z,18.00
2022-10-15T15:23:47.396Z,18.00
2022-10-15T15:25:49.376Z,18.00
2022-10-15T15:27:51.012Z,18.10
2022-10-15T15:29:53.097Z,18.10
2022-10-15T15:31:54.705Z,18.20
2022-10-15T15:33:56.472Z,18.10
2022-10-15T15:36:06.684Z,18.20
2022-10-15T15:38:11.313Z,18.20
2022-10-15T15:40:12.935Z,18.30
2022-10-15T15:42:19.050Z,18.60
2022-10-15T15:44:20.606Z,18.70
2022-10-15T15:46:22.265Z,18.80
2022-10-15T15:48:23.826Z,18.70
2022-10-15T15:50:25.441Z,18.70
2022-10-15T15:52:27.197Z,18.60
2022-10-15T15:54:29.985Z,18.60
2022-10-15T15:56:31.603Z,18.80
2022-10-15T15:58:33.209Z,19.10
2022-10-15T16:00:34.813Z,19.30
2022-10-15T16:02:37.111Z,19.30
2022-10-15T16:04:38.732Z,19.20
2022-10-15T16:06:40.416Z,18.90
2022-10-15T16:08:42.071Z,18.80
2022-10-15T16:10:44.090Z,18.60
2022-10-15T16:12:45.724Z,18.50
2022-10-15T16:14:47.364Z,18.50
2022-10-15T16:16:49.027Z,18.30
2022-10-15T16:18:50.649Z,18.30
2022-10-15T16:20:52.310Z,18.30
2022-10-15T16:22:54.143Z,18.30
2022-10-15T16:24:55.777Z,18.20
2022-10-15T16:26:57.346Z,18.20
2022-10-15T16:28:58.948Z,18.20
2022-10-15T16:31:16.890Z,18.10
2022-10-15T16:33:18.501Z,18.00
2022-10-15T16:35:20.230Z,18.10
2022-10-15T16:37:22.015Z,18.10
2022-10-15T16:39:23.725Z,18.00
2022-10-15T16:41:25.386Z,18.00
2022-10-15T16:43:27.055Z,17.90
2022-10-15T16:45:28.652Z,17.90
2022-10-15T16:47:30.384Z,17.90
2022-10-15T16:49:32.046Z,18.00
2022-10-15T16:51:34.916Z,17.90
2022-10-15T16:53:38.843Z,17.80
2022-10-15T16:55:40.449Z,17.80
2022-10-15T16:57:42.039Z,17.80
2022-10-15T16:59:43.784Z,17.70
2022-10-15T17:01:45.402Z,17.60
2022-10-15T17:03:47.386Z,17.70
2022-10-15T17:05:48.938Z,17.70
2022-10-15T17:07:50.509Z,17.70
2022-10-15T17:09:52.100Z,17.60
2022-10-15T17:11:53.690Z,17.60
2022-10-15T17:13:57.225Z,17.60
2022-10-15T17:16:07.085Z,17.60
2022-10-15T17:18:08.861Z,17.50
2022-10-15T17:20:11.215Z,17.40
2022-10-15T17:22:12.850Z,17.50
2022-10-15T17:24:15.269Z,17.50
2022-10-15T17:26:18.645Z,17.50
2022-10-15T17:30:26.861Z,17.50
2022-10-15T17:32:28.454Z,17.40
2022-10-15T17:34:30.046Z,17.30
2022-10-15T17:36:32.688Z,17.20
2022-10-15T17:38:34.366Z,17.20
2022-10-15T17:40:36.045Z,17.10
2022-10-15T17:42:42.433Z,17.10
2022-10-15T17:44:44.112Z,17.10
2022-10-15T17:46:46.017Z,17.10
2022-10-15T17:48:47.964Z,17.10
2022-10-15T17:50:49.559Z,17.10
2022-10-15T17:52:51.176Z,17.10
2022-10-15T17:54:52.791Z,17.00
2022-10-15T17:56:54.386Z,16.90
2022-10-15T17:58:56.841Z,17.00
2022-10-15T18:00:58.450Z,16.90
2022-10-15T18:03:00.100Z,16.90
2022-10-15T18:05:01.989Z,16.80
2022-10-15T18:07:03.665Z,16.70
2022-10-15T18:09:05.431Z,16.70
2022-10-15T18:11:07.525Z,16.70
2022-10-15T18:13:10.242Z,16.70
2022-10-15T18:15:11.945Z,16.70
2022-10-15T18:17:15.171Z,16.70
2022-10-15T18:19:16.762Z,16.70
2022-10-15T18:21:18.933Z,16.80
2022-10-15T18:23:20.814Z,16.80
2022-10-15T18:25:22.526Z,16.70
2022-10-15T18:27:24.618Z,16.70
2022-10-15T18:29:26.545Z,16.70
2022-10-15T18:31:28.198Z,16.70
2022-10-15T18:33:30.371Z,16.70
2022-10-15T18:35:35.310Z,16.70
2022-10-15T18:37:36.929Z,16.70
2022-10-15T18:39:38.547Z,16.70
2022-10-15T18:41:40.891Z,16.70
2022-10-15T18:43:42.567Z,16.60
2022-10-15T18:45:45.620Z,16.60
2022-10-15T18:47:47.341Z,16.70
2022-10-15T18:49:49.006Z,16.90
2022-10-15T18:51:51.860Z,17.00
2022-10-15T18:53:53.915Z,16.90
2022-10-15T18:55:55.532Z,16.80
2022-10-15T18:57:57.097Z,16.80
2022-10-15T18:59:58.826Z,16.70
2022-10-15T19:02:00.535Z,16.80
2022-10-15T19:04:05.360Z,16.80
2022-10-15T19:06:06.935Z,16.80
2022-10-15T19:08:08.773Z,16.80
2022-10-15T19:10:10.452Z,16.80
2022-10-15T19:12:12.027Z,16.80
2022-10-15T19:14:15.755Z,16.80
2022-10-15T19:16:17.386Z,16.70
2022-10-15T19:18:18.981Z,16.70
2022-10-15T19:20:20.645Z,16.70
2022-10-15T19:22:22.313Z,16.70
2022-10-15T19:24:24.241Z,16.70
2022-10-15T19:26:26.148Z,16.60
2022-10-15T19:28:28.890Z,16.60
2022-10-15T19:30:30.577Z,16.50
2022-10-15T19:32:32.202Z,16.60
2022-10-15T19:34:35.325Z,16.50
2022-10-15T19:36:41.539Z,16.40
2022-10-15T19:38:43.105Z,16.40
2022-10-15T19:40:47.345Z,16.40
2022-10-15T19:42:51.168Z,16.40
2022-10-15T19:44:52.733Z,16.40
2022-10-15T19:46:55.301Z,16.30
2022-10-15T19:48:57.366Z,16.30
2022-10-15T19:51:00.876Z,16.30
2022-10-15T19:53:02.706Z,16.30
2022-10-15T19:55:04.501Z,16.30
2022-10-15T19:57:06.428Z,16.30
2022-10-15T19:59:08.060Z,16.20
2022-10-15T20:01:10.043Z,16.30
2022-10-15T20:03:11.628Z,16.20
2022-10-15T20:05:13.326Z,16.20
2022-10-15T20:07:14.882Z,16.20
2022-10-15T20:09:16.483Z,16.10
2022-10-15T20:11:19.738Z,16.10
2022-10-15T20:13:22.388Z,16.10
2022-10-15T20:15:23.979Z,16.10
2022-10-15T20:17:25.939Z,16.10
2022-10-15T20:19:27.704Z,16.10
2022-10-15T20:21:29.377Z,16.10
2022-10-15T20:23:31.041Z,16.10
2022-10-15T20:25:33.039Z,16.10
2022-10-15T20:27:34.642Z,16.10
2022-10-15T20:29:36.240Z,16.10
2022-10-15T20:31:38.020Z,16.00
2022-10-15T20:33:40.223Z,16.00
2022-10-15T20:35:42.221Z,16.00
2022-10-15T20:37:43.877Z,16.00
2022-10-15T20:39:45.631Z,16.00
2022-10-15T20:41:47.792Z,16.10
2022-10-15T20:43:52.788Z,16.00
2022-10-15T20:45:56.084Z,16.00
2022-10-15T20:47:58.035Z,16.00
2022-10-15T20:50:00.407Z,16.00
2022-10-15T20:52:03.420Z,16.00
2022-10-15T20:54:05.349Z,16.00
2022-10-15T20:56:07.140Z,15.90
2022-10-15T20:58:09.095Z,15.90
2022-10-15T21:00:11.134Z,15.90
2022-10-15T21:02:12.797Z,15.90
2022-10-15T21:04:14.381Z,15.90
2022-10-15T21:06:16.040Z,15.90
2022-10-15T21:08:17.623Z,15.90
2022-10-15T21:10:19.195Z,15.80
2022-10-15T21:12:20.768Z,15.80
2022-10-15T21:14:22.375Z,15.80
2022-10-15T21:16:27.433Z,15.80
2022-10-15T21:18:30.137Z,15.80
2022-10-15T21:20:31.749Z,15.80
2022-10-15T21:22:33.444Z,15.80
2022-10-15T21:24:35.226Z,15.80
2022-10-15T21:26:36.860Z,15.80
2022-10-15T21:28:38.522Z,15.80
2022-10-15T21:30:40.661Z,15.70
2022-10-15T21:32:42.254Z,15.70
2022-10-15T21:34:44.228Z,15.70
2022-10-15T21:36:46.223Z,15.70
2022-10-15T21:38:57.508Z,15.70
2022-10-15T21:40:59.084Z,15.70
2022-10-15T21:43:00.667Z,15.70
2022-10-15T21:45:02.255Z,15.70
2022-10-15T21:47:05.228Z,15.70
2022-10-15T21:49:08.367Z,15.70
2022-10-15T21:51:24.000Z,15.70
2022-10-15T21:53:25.592Z,15.70
2022-10-15T21:55:29.843Z,15.70
2022-10-15T21:57:33.570Z,15.70
2022-10-15T21:59:35.191Z,15.70
2022-10-15T22:01:39.799Z,15.80
2022-10-15T22:03:41.821Z,15.80
2022-10-15T22:05:43.501Z,15.80
2022-10-15T22:07:45.092Z,15.80
2022-10-15T22:09:47.230Z,15.70
2022-10-15T22:11:48.823Z,15.70
2022-10-15T22:13:52.638Z,15.70
2022-10-15T22:15:54.186Z,15.70
2022-10-15T22:17:55.750Z,15.60
2022-10-15T22:19:57.309Z,15.60
2022-10-15T22:21:58.880Z,15.70
2022-10-15T22:24:02.047Z,15.70
2022-10-15T22:26:03.659Z,15.70
2022-10-15T22:28:05.383Z,15.60
2022-10-15T22:30:07.199Z,15.60
2022-10-15T22:32:08.808Z,15.70
2022-10-15T22:34:10.575Z,15.70
2022-10-15T22:36:19.657Z,15.70
2022-10-15T22:38:21.286Z,15.70
2022-10-15T22:40:22.889Z,15.60
2022-10-15T22:42:24.719Z,15.60
2022-10-15T22:44:26.423Z,15.60
2022-10-15T22:46:28.148Z,15.70
2022-10-15T22:48:31.865Z,15.60
2022-10-15T22:50:33.441Z,15.60
2022-10-15T22:52:34.992Z,15.60
2022-10-15T22:54:36.598Z,15.60
2022-10-15T22:56:38.158Z,15.60
2022-10-15T22:58:40.052Z,15.60
2022-10-15T23:00:41.615Z,15.60
2022-10-15T23:02:43.173Z,15.70
2022-10-15T23:04:44.748Z,15.60
2022-10-15T23:06:46.295Z,15.70
2022-10-15T23:08:48.358Z,15.70
2022-10-15T23:10:49.936Z,15.70
2022-10-15T23:12:51.565Z,15.70
2022-10-15T23:14:53.122Z,15.60
2022-10-15T23:16:54.721Z,15.60
2022-10-15T23:18:58.501Z,15.60
2022-10-15T23:21:06.905Z,15.60
2022-10-15T23:23:08.527Z,15.60
2022-10-15T23:25:10.173Z,15.60
2022-10-15T23:27:12.049Z,15.60
2022-10-15T23:29:14.617Z,15.60
2022-10-15T23:31:17.111Z,15.60
2022-10-15T23:33:18.793Z,15.50
2022-10-15T23:35:20.366Z,15.50
2022-10-15T23:37:21.929Z,15.50
2022-10-15T23:39:24.591Z,15.50
2022-10-15T23:41:26.546Z,15.50
2022-10-15T23:43:28.229Z,15.50
2022-10-15T23:45:29.824Z,15.50
2022-10-15T23:47:31.432Z,15.50
2022-10-15T23:49:33.003Z,15.50
2022-10-15T23:51:34.959Z,15.50
2022-10-15T23:53:36.564Z,15.40
2022-10-15T23:55:41.363Z,15.40
2022-10-15T23:57:42.947Z,15.40
2022-10-15T23:59:44.527Z,15.40
